Time;durP1;ratioP1;P1;durP2;ratioP2;P2;SDS_P1;SDS_P2;PMS_P1;PMS_P2;Temp;Humidity;BMP_temperature;BMP_pressure;BME280_temperature;BME280_humidity;BME280_pressure;Samples;Min_cycle;Max_cycle;Signal;HPM_P1;HPM_P2
2023/06/24 21:04:49;;;;;;;104.90;13.13;;;;;;;;;;5061451;27;20900;-56
2023/06/24 21:07:14;;;;;;;65.10;10.50;;;;;;;;;;5024814;28;20494;-56
2023/06/24 21:09:39;;;;;;;57.17;10.73;;;;;;;;;;5020476;28;20029;-56
2023/06/24 21:12:05;;;;;;;72.97;11.53;;;;;;;;;;5019000;28;20816;-57
2023/06/24 21:14:30;;;;;;;61.55;10.35;;;;;;;;;;5021473;28;21006;-57
2023/06/24 21:16:55;;;;;;;81.15;12.55;;;;;;;;;;5016223;28;20395;-57
2023/06/24 21:19:20;;;;;;;61.90;10.90;;;;;;;;;;5019918;28;20381;-59
2023/06/24 21:21:46;;;;;;;64.18;10.73;;;;;;;;;;5021035;28;20755;-57
2023/06/24 21:24:11;;;;;;;57.97;10.05;;;;;;;;;;5017327;28;20043;-58
2023/06/24 21:26:36;;;;;;;71.30;10.40;;;;;;;;;;5020129;28;20626;-56
2023/06/24 21:29:01;;;;;;;108.22;13.35;;;;;;;;;;5020788;28;20279;-56
2023/06/24 21:31:27;;;;;;;71.13;10.43;;;;;;;;;;5017690;28;20038;-56
2023/06/24 21:33:52;;;;;;;75.60;10.70;;;;;;;;;;5019682;28;20256;-58
2023/06/24 21:36:17;;;;;;;66.72;10.35;;;;;;;;;;5017010;28;20626;-58
2023/06/24 21:38:42;;;;;;;76.33;11.20;;;;;;;;;;5020978;28;20029;-60
2023/06/24 21:41:08;;;;;;;106.28;13.10;;;;;;;;;;5021555;28;20029;-57
2023/06/24 21:43:36;;;;;;;70.87;10.33;;;;;;;;;;5018329;28;20021;-59
2023/06/24 21:46:04;;;;;;;120.07;12.68;;;;;;;;;;5017587;28;20729;-59
2023/06/24 21:48:29;;;;;;;98.20;11.75;;;;;;;;;;5018928;28;20749;-56
2023/06/24 21:50:55;;;;;;;78.17;10.77;;;;;;;;;;5019702;28;20033;-58
2023/06/24 21:53:20;;;;;;;89.22;11.27;;;;;;;;;;5021089;28;20271;-58
2023/06/24 21:55:46;;;;;;;75.50;10.18;;;;;;;;;;5017575;28;20457;-58
2023/06/24 21:58:11;;;;;;;118.28;13.55;;;;;;;;;;5018670;28;20025;-59
2023/06/24 22:00:36;;;;;;;73.87;10.17;;;;;;;;;;5019619;28;20128;-57
2023/06/24 22:03:01;;;;;;;86.23;10.97;;;;;;;;;;5017360;28;20773;-57
2023/06/24 22:05:27;;;;;;;66.87;10.00;;;;;;;;;;5016872;28;20675;-58
2023/06/24 22:07:52;;;;;;;83.65;11.10;;;;;;;;;;5020477;28;20263;-57
2023/06/24 22:10:17;;;;;;;74.50;9.90;;;;;;;;;;5018755;28;20010;-57
2023/06/24 22:12:43;;;;;;;76.50;10.50;;;;;;;;;;5019577;28;20052;-57
2023/06/24 22:15:08;;;;;;;115.97;14.00;;;;;;;;;;5009706;28;20392;-58
2023/06/24 22:17:33;;;;;;;81.85;10.52;;;;;;;;;;5006554;28;20386;-59
2023/06/24 22:19:58;;;;;;;78.90;10.57;;;;;;;;;;5003886;28;20356;-57
2023/06/24 22:22:24;;;;;;;77.43;10.10;;;;;;;;;;5004431;28;20308;-59
2023/06/24 22:24:49;;;;;;;84.03;10.80;;;;;;;;;;5005768;28;20625;-56
2023/06/24 22:27:14;;;;;;;101.25;12.25;;;;;;;;;;5005349;28;20060;-57
2023/06/24 22:29:40;;;;;;;78.72;10.63;;;;;;;;;;5006953;28;20026;-56
2023/06/24 22:32:05;;;;;;;119.10;14.20;;;;;;;;;;5005079;28;20037;-58
2023/06/24 22:34:30;;;;;;;68.20;9.70;;;;;;;;;;5005774;28;20269;-57
2023/06/24 22:36:55;;;;;;;78.83;10.13;;;;;;;;;;5006467;28;20518;-56
2023/06/24 22:39:21;;;;;;;73.87;9.97;;;;;;;;;;5004329;28;20256;-57
2023/06/24 22:41:46;;;;;;;87.25;11.05;;;;;;;;;;5005210;28;20271;-55
2023/06/24 22:44:11;;;;;;;108.97;12.73;;;;;;;;;;5012139;28;20077;-57
2023/06/24 22:46:36;;;;;;;74.85;10.43;;;;;;;;;;5004583;28;20637;-58
2023/06/24 22:49:02;;;;;;;111.70;13.30;;;;;;;;;;5005407;28;20021;-59
2023/06/24 22:51:27;;;;;;;72.83;9.37;;;;;;;;;;5003856;28;20058;-58
2023/06/24 22:53:52;;;;;;;67.70;9.70;;;;;;;;;;5005018;28;20021;-58
2023/06/24 22:56:17;;;;;;;69.53;9.57;;;;;;;;;;5002301;28;20312;-58
2023/06/24 22:58:43;;;;;;;60.87;9.23;;;;;;;;;;5007081;28;20041;-62
2023/06/24 23:01:08;;;;;;;112.40;12.80;;;;;;;;;;5003823;28;20272;-57
2023/06/24 23:03:33;;;;;;;75.03;9.70;;;;;;;;;;5005937;28;20535;-57
2023/06/24 23:05:59;;;;;;;81.10;10.55;;;;;;;;;;5002329;28;20419;-57
2023/06/24 23:08:24;;;;;;;60.40;9.07;;;;;;;;;;5006277;28;20036;-57
2023/06/24 23:10:49;;;;;;;66.53;9.35;;;;;;;;;;5004622;28;20029;-57
2023/06/24 23:13:15;;;;;;;98.70;11.93;;;;;;;;;;5005682;28;20472;-60
2023/06/24 23:15:41;;;;;;;66.50;9.38;;;;;;;;;;5004356;28;20091;-57
2023/06/24 23:18:06;;;;;;;103.18;11.95;;;;;;;;;;5004144;28;20053;-58
2023/06/24 23:20:32;;;;;;;59.40;8.48;;;;;;;;;;5004534;28;20469;-58
2023/06/24 23:22:57;;;;;;;77.10;10.15;;;;;;;;;;5006224;28;20032;-57
2023/06/24 23:25:22;;;;;;;81.53;10.40;;;;;;;;;;5001338;28;20052;-56
2023/06/24 23:27:56;;;;;;;58.67;8.45;;;;;;;;;;5005208;28;20022;-59
2023/06/24 23:30:21;;;;;;;86.82;10.80;;;;;;;;;;5003028;28;20022;-58
2023/06/24 23:32:46;;;;;;;93.18;11.05;;;;;;;;;;5005665;28;20017;-58
2023/06/24 23:35:12;;;;;;;137.05;14.38;;;;;;;;;;5002498;28;20075;-57
2023/06/24 23:37:37;;;;;;;80.85;10.55;;;;;;;;;;5003592;28;20021;-56
2023/06/24 23:40:06;;;;;;;83.93;10.05;;;;;;;;;;5009571;28;20448;-57
2023/06/24 23:42:32;;;;;;;77.93;10.02;;;;;;;;;;5003402;28;20700;-56
2023/06/24 23:44:58;;;;;;;76.30;9.30;;;;;;;;;;5005041;28;20491;-59
2023/06/24 23:47:23;;;;;;;72.50;9.63;;;;;;;;;;5002805;28;20030;-57
2023/06/24 23:49:48;;;;;;;87.10;10.25;;;;;;;;;;5003382;28;20013;-56
2023/06/24 23:52:13;;;;;;;112.77;13.43;;;;;;;;;;5001873;28;20037;-55
2023/06/24 23:54:39;;;;;;;73.80;9.75;;;;;;;;;;5003804;28;20269;-55
2023/06/24 23:57:04;;;;;;;94.00;11.73;;;;;;;;;;5000305;28;21066;-57
2023/06/24 23:59:29;;;;;;;65.85;9.43;;;;;;;;;;5003560;28;20264;-58
